sensor_id;sensor_type;location;lat;lon;timestamp;P1;durP1;ratioP1;P2;durP2;ratioP2
70312;SDS011;57723;51.698;5.344;2024-02-21T00:01:18;6.03;;;2.55;;
70312;SDS011;57723;51.698;5.344;2024-02-21T00:03:45;9.45;;;2.70;;
70312;SDS011;57723;51.698;5.344;2024-02-21T00:06:10;7.60;;;2.65;;
70312;SDS011;57723;51.698;5.344;2024-02-21T00:08:36;7.67;;;2.70;;
70312;SDS011;57723;51.698;5.344;2024-02-21T00:11:01;6.30;;;2.50;;
70312;SDS011;57723;51.698;5.344;2024-02-21T00:13:27;6.95;;;2.53;;
70312;SDS011;57723;51.698;5.344;2024-02-21T00:15:53;6.15;;;2.35;;
70312;SDS011;57723;51.698;5.344;2024-02-21T00:18:19;7.33;;;2.80;;
70312;SDS011;57723;51.698;5.344;2024-02-21T00:20:45;7.18;;;2.60;;
70312;SDS011;57723;51.698;5.344;2024-02-21T00:23:11;5.78;;;2.67;;
70312;SDS011;57723;51.698;5.344;2024-02-21T00:25:37;4.95;;;2.10;;
70312;SDS011;57723;51.698;5.344;2024-02-21T00:28:02;6.47;;;2.47;;
70312;SDS011;57723;51.698;5.344;2024-02-21T00:30:34;7.13;;;2.57;;
70312;SDS011;57723;51.698;5.344;2024-02-21T00:32:59;7.30;;;2.47;;
70312;SDS011;57723;51.698;5.344;2024-02-21T00:35:25;7.27;;;2.60;;
70312;SDS011;57723;51.698;5.344;2024-02-21T00:37:50;4.47;;;2.30;;
70312;SDS011;57723;51.698;5.344;2024-02-21T00:40:16;6.80;;;2.20;;
70312;SDS011;57723;51.698;5.344;2024-02-21T00:42:47;5.43;;;2.33;;
70312;SDS011;57723;51.698;5.344;2024-02-21T00:45:13;5.70;;;2.20;;
70312;SDS011;57723;51.698;5.344;2024-02-21T00:47:39;6.10;;;2.35;;
70312;SDS011;57723;51.698;5.344;2024-02-21T00:50:04;5.53;;;2.20;;
70312;SDS011;57723;51.698;5.344;2024-02-21T00:52:30;6.00;;;2.60;;
70312;SDS011;57723;51.698;5.344;2024-02-21T00:54:55;6.20;;;2.20;;
70312;SDS011;57723;51.698;5.344;2024-02-21T00:57:20;6.63;;;2.30;;
70312;SDS011;57723;51.698;5.344;2024-02-21T00:59:49;8.25;;;2.50;;
70312;SDS011;57723;51.698;5.344;2024-02-21T01:02:14;18.05;;;2.53;;
70312;SDS011;57723;51.698;5.344;2024-02-21T01:04:40;5.70;;;2.20;;
70312;SDS011;57723;51.698;5.344;2024-02-21T01:07:05;7.70;;;2.55;;
70312;SDS011;57723;51.698;5.344;2024-02-21T01:09:31;6.65;;;2.35;;
70312;SDS011;57723;51.698;5.344;2024-02-21T01:11:56;7.63;;;2.23;;
70312;SDS011;57723;51.698;5.344;2024-02-21T01:14:22;5.87;;;2.67;;
70312;SDS011;57723;51.698;5.344;2024-02-21T01:16:47;11.40;;;2.60;;
70312;SDS011;57723;51.698;5.344;2024-02-21T01:19:13;8.52;;;2.30;;
70312;SDS011;57723;51.698;5.344;2024-02-21T01:21:38;7.47;;;2.43;;
70312;SDS011;57723;51.698;5.344;2024-02-21T01:24:03;4.47;;;2.10;;
70312;SDS011;57723;51.698;5.344;2024-02-21T01:26:29;7.93;;;2.47;;
70312;SDS011;57723;51.698;5.344;2024-02-21T01:28:54;6.68;;;2.50;;
70312;SDS011;57723;51.698;5.344;2024-02-21T01:31:20;5.03;;;2.30;;
70312;SDS011;57723;51.698;5.344;2024-02-21T01:33:46;4.85;;;2.17;;
70312;SDS011;57723;51.698;5.344;2024-02-21T01:36:11;5.20;;;2.10;;
70312;SDS011;57723;51.698;5.344;2024-02-21T01:38:37;4.90;;;2.50;;
70312;SDS011;57723;51.698;5.344;2024-02-21T01:41:02;7.13;;;2.35;;
70312;SDS011;57723;51.698;5.344;2024-02-21T01:43:28;8.53;;;2.30;;
70312;SDS011;57723;51.698;5.344;2024-02-21T01:46:14;6.38;;;2.33;;
70312;SDS011;57723;51.698;5.344;2024-02-21T01:48:43;6.90;;;2.20;;
70312;SDS011;57723;51.698;5.344;2024-02-21T01:51:11;7.05;;;2.13;;
70312;SDS011;57723;51.698;5.344;2024-02-21T01:53:42;5.60;;;2.40;;
70312;SDS011;57723;51.698;5.344;2024-02-21T01:56:08;5.35;;;2.13;;
70312;SDS011;57723;51.698;5.344;2024-02-21T01:58:34;4.33;;;2.03;;
70312;SDS011;57723;51.698;5.344;2024-02-21T02:01:04;6.68;;;2.40;;
70312;SDS011;57723;51.698;5.344;2024-02-21T02:03:29;4.40;;;2.10;;
70312;SDS011;57723;51.698;5.344;2024-02-21T02:05:55;4.70;;;2.10;;
70312;SDS011;57723;51.698;5.344;2024-02-21T02:08:21;7.05;;;2.50;;
70312;SDS011;57723;51.698;5.344;2024-02-21T02:10:49;6.37;;;2.17;;
70312;SDS011;57723;51.698;5.344;2024-02-21T02:13:18;4.63;;;1.95;;
70312;SDS011;57723;51.698;5.344;2024-02-21T02:15:44;5.57;;;2.08;;
70312;SDS011;57723;51.698;5.344;2024-02-21T02:18:10;6.32;;;2.50;;
70312;SDS011;57723;51.698;5.344;2024-02-21T02:20:35;6.17;;;2.30;;
70312;SDS011;57723;51.698;5.344;2024-02-21T02:26:00;5.45;;;2.00;;
70312;SDS011;57723;51.698;5.344;2024-02-21T02:28:26;4.22;;;1.80;;
70312;SDS011;57723;51.698;5.344;2024-02-21T02:30:52;5.28;;;2.20;;
70312;SDS011;57723;51.698;5.344;2024-02-21T02:33:18;4.37;;;2.20;;
70312;SDS011;57723;51.698;5.344;2024-02-21T02:35:46;4.43;;;1.90;;
70312;SDS011;57723;51.698;5.344;2024-02-21T02:38:15;5.45;;;1.98;;
70312;SDS011;57723;51.698;5.344;2024-02-21T02:40:44;5.15;;;2.42;;
70312;SDS011;57723;51.698;5.344;2024-02-21T02:43:09;5.47;;;2.10;;
70312;SDS011;57723;51.698;5.344;2024-02-21T02:45:35;5.73;;;1.90;;
70312;SDS011;57723;51.698;5.344;2024-02-21T02:48:03;4.20;;;1.90;;
70312;SDS011;57723;51.698;5.344;2024-02-21T02:50:31;4.75;;;2.10;;
70312;SDS011;57723;51.698;5.344;2024-02-21T02:53:01;5.82;;;1.92;;
70312;SDS011;57723;51.698;5.344;2024-02-21T02:55:26;4.93;;;1.87;;
70312;SDS011;57723;51.698;5.344;2024-02-21T02:57:51;3.37;;;1.73;;
70312;SDS011;57723;51.698;5.344;2024-02-21T03:00:17;4.82;;;1.98;;
70312;SDS011;57723;51.698;5.344;2024-02-21T03:02:48;5.27;;;1.87;;
70312;SDS011;57723;51.698;5.344;2024-02-21T03:05:14;4.45;;;1.88;;
70312;SDS011;57723;51.698;5.344;2024-02-21T03:07:40;5.47;;;1.85;;
70312;SDS011;57723;51.698;5.344;2024-02-21T03:10:06;4.37;;;1.80;;
70312;SDS011;57723;51.698;5.344;2024-02-21T03:12:31;5.88;;;1.90;;
70312;SDS011;57723;51.698;5.344;2024-02-21T03:14:56;3.37;;;1.77;;
70312;SDS011;57723;51.698;5.344;2024-02-21T03:17:22;4.93;;;1.70;;
70312;SDS011;57723;51.698;5.344;2024-02-21T03:19:49;5.27;;;1.83;;
70312;SDS011;57723;51.698;5.344;2024-02-21T03:22:15;5.85;;;1.80;;
70312;SDS011;57723;51.698;5.344;2024-02-21T03:24:44;5.00;;;1.85;;
70312;SDS011;57723;51.698;5.344;2024-02-21T03:27:10;5.10;;;2.05;;
70312;SDS011;57723;51.698;5.344;2024-02-21T03:29:35;4.22;;;1.70;;
70312;SDS011;57723;51.698;5.344;2024-02-21T03:32:01;5.43;;;1.60;;
70312;SDS011;57723;51.698;5.344;2024-02-21T03:34:29;4.50;;;1.90;;
70312;SDS011;57723;51.698;5.344;2024-02-21T03:36:55;4.93;;;1.80;;
70312;SDS011;57723;51.698;5.344;2024-02-21T03:39:24;4.13;;;1.77;;
70312;SDS011;57723;51.698;5.344;2024-02-21T03:41:50;6.43;;;2.10;;
70312;SDS011;57723;51.698;5.344;2024-02-21T03:44:18;4.25;;;1.80;;
70312;SDS011;57723;51.698;5.344;2024-02-21T03:46:45;4.75;;;1.80;;
70312;SDS011;57723;51.698;5.344;2024-02-21T03:49:13;4.75;;;1.60;;
70312;SDS011;57723;51.698;5.344;2024-02-21T03:51:38;5.43;;;1.80;;
70312;SDS011;57723;51.698;5.344;2024-02-21T03:54:05;2.88;;;1.48;;
70312;SDS011;57723;51.698;5.344;2024-02-21T03:56:36;5.40;;;1.80;;
70312;SDS011;57723;51.698;5.344;2024-02-21T03:59:02;3.80;;;1.63;;
70312;SDS011;57723;51.698;5.344;2024-02-21T04:01:27;4.13;;;1.80;;
70312;SDS011;57723;51.698;5.344;2024-02-21T04:03:55;5.35;;;1.60;;
70312;SDS011;57723;51.698;5.344;2024-02-21T04:06:23;5.73;;;1.60;;
70312;SDS011;57723;51.698;5.344;2024-02-21T04:08:49;3.95;;;1.70;;
70312;SDS011;57723;51.698;5.344;2024-02-21T04:11:14;4.33;;;1.40;;
70312;SDS011;57723;51.698;5.344;2024-02-21T04:13:39;3.60;;;1.77;;
70312;SDS011;57723;51.698;5.344;2024-02-21T04:16:05;4.23;;;1.77;;
70312;SDS011;57723;51.698;5.344;2024-02-21T04:18:31;4.77;;;1.80;;
70312;SDS011;57723;51.698;5.344;2024-02-21T04:20:56;3.88;;;1.80;;
70312;SDS011;57723;51.698;5.344;2024-02-21T04:23:22;6.03;;;1.87;;
70312;SDS011;57723;51.698;5.344;2024-02-21T04:25:47;3.73;;;1.63;;
70312;SDS011;57723;51.698;5.344;2024-02-21T04:28:13;4.10;;;1.58;;
70312;SDS011;57723;51.698;5.344;2024-02-21T04:30:42;2.87;;;1.40;;
70312;SDS011;57723;51.698;5.344;2024-02-21T04:33:12;5.47;;;1.70;;
70312;SDS011;57723;51.698;5.344;2024-02-21T04:35:38;6.53;;;1.53;;
70312;SDS011;57723;51.698;5.344;2024-02-21T04:38:04;5.22;;;1.85;;
70312;SDS011;57723;51.698;5.344;2024-02-21T04:40:29;4.23;;;1.57;;
70312;SDS011;57723;51.698;5.344;2024-02-21T04:42:57;3.85;;;1.60;;
70312;SDS011;57723;51.698;5.344;2024-02-21T04:45:23;4.88;;;1.70;;
70312;SDS011;57723;51.698;5.344;2024-02-21T04:47:53;3.58;;;1.60;;
70312;SDS011;57723;51.698;5.344;2024-02-21T04:50:18;4.22;;;1.70;;
70312;SDS011;57723;51.698;5.344;2024-02-21T04:52:43;3.78;;;1.45;;
70312;SDS011;57723;51.698;5.344;2024-02-21T04:55:09;4.13;;;1.30;;
70312;SDS011;57723;51.698;5.344;2024-02-21T04:57:40;4.13;;;1.77;;
70312;SDS011;57723;51.698;5.344;2024-02-21T05:00:06;3.88;;;1.50;;
70312;SDS011;57723;51.698;5.344;2024-02-21T05:02:32;6.35;;;1.77;;
70312;SDS011;57723;51.698;5.344;2024-02-21T05:04:57;6.13;;;1.80;;
70312;SDS011;57723;51.698;5.344;2024-02-21T05:07:25;4.30;;;1.77;;
70312;SDS011;57723;51.698;5.344;2024-02-21T05:09:50;7.63;;;1.70;;
70312;SDS011;57723;51.698;5.344;2024-02-21T05:12:16;4.07;;;1.70;;
70312;SDS011;57723;51.698;5.344;2024-02-21T05:14:42;3.60;;;1.53;;
70312;SDS011;57723;51.698;5.344;2024-02-21T05:17:07;5.83;;;1.97;;
70312;SDS011;57723;51.698;5.344;2024-02-21T05:19:36;4.20;;;1.70;;
70312;SDS011;57723;51.698;5.344;2024-02-21T05:22:04;4.25;;;1.58;;
70312;SDS011;57723;51.698;5.344;2024-02-21T05:24:29;10.32;;;1.65;;
70312;SDS011;57723;51.698;5.344;2024-02-21T05:26:54;7.33;;;1.80;;
70312;SDS011;57723;51.698;5.344;2024-02-21T05:29:20;5.57;;;1.60;;
70312;SDS011;57723;51.698;5.344;2024-02-21T05:34:17;4.50;;;1.57;;
70312;SDS011;57723;51.698;5.344;2024-02-21T05:36:42;4.38;;;1.63;;
70312;SDS011;57723;51.698;5.344;2024-02-21T05:39:10;3.10;;;1.50;;
70312;SDS011;57723;51.698;5.344;2024-02-21T05:41:35;3.60;;;1.50;;
70312;SDS011;57723;51.698;5.344;2024-02-21T05:44:01;4.55;;;1.80;;
70312;SDS011;57723;51.698;5.344;2024-02-21T05:46:27;4.90;;;1.55;;
70312;SDS011;57723;51.698;5.344;2024-02-21T05:48:53;4.15;;;1.50;;
70312;SDS011;57723;51.698;5.344;2024-02-21T05:51:19;3.28;;;1.50;;
70312;SDS011;57723;51.698;5.344;2024-02-21T05:53:47;4.70;;;1.40;;
70312;SDS011;57723;51.698;5.344;2024-02-21T05:56:13;4.70;;;2.10;;
70312;SDS011;57723;51.698;5.344;2024-02-21T05:58:42;3.63;;;1.70;;
70312;SDS011;57723;51.698;5.344;2024-02-21T06:01:16;3.57;;;1.20;;
70312;SDS011;57723;51.698;5.344;2024-02-21T06:03:43;4.18;;;1.80;;
70312;SDS011;57723;51.698;5.344;2024-02-21T06:06:08;5.60;;;2.67;;
70312;SDS011;57723;51.698;5.344;2024-02-21T06:08:33;19.97;;;18.37;;
70312;SDS011;57723;51.698;5.344;2024-02-21T06:10:59;40.95;;;38.38;;
70312;SDS011;57723;51.698;5.344;2024-02-21T06:13:24;79.43;;;74.37;;
70312;SDS011;57723;51.698;5.344;2024-02-21T06:15:50;109.73;;;102.33;;
70312;SDS011;57723;51.698;5.344;2024-02-21T06:18:19;145.02;;;135.15;;
70312;SDS011;57723;51.698;5.344;2024-02-21T06:20:44;185.27;;;173.52;;
70312;SDS011;57723;51.698;5.344;2024-02-21T06:23:11;210.10;;;197.17;;
70312;SDS011;57723;51.698;5.344;2024-02-21T06:25:39;225.07;;;211.90;;
70312;SDS011;57723;51.698;5.344;2024-02-21T06:28:05;227.82;;;213.80;;
70312;SDS011;57723;51.698;5.344;2024-02-21T06:30:30;235.98;;;221.73;;
70312;SDS011;57723;51.698;5.344;2024-02-21T06:32:56;273.50;;;257.17;;
70312;SDS011;57723;51.698;5.344;2024-02-21T06:35:22;274.17;;;257.98;;
70312;SDS011;57723;51.698;5.344;2024-02-21T06:37:49;5.90;;;1.50;;
70312;SDS011;57723;51.698;5.344;2024-02-21T06:40:16;4.43;;;1.48;;
70312;SDS011;57723;51.698;5.344;2024-02-21T06:42:42;11.40;;;1.90;;
70312;SDS011;57723;51.698;5.344;2024-02-21T06:45:10;5.40;;;1.40;;
70312;SDS011;57723;51.698;5.344;2024-02-21T06:47:35;3.08;;;1.40;;
70312;SDS011;57723;51.698;5.344;2024-02-21T06:50:01;4.00;;;1.33;;
70312;SDS011;57723;51.698;5.344;2024-02-21T06:52:26;5.03;;;1.40;;
70312;SDS011;57723;51.698;5.344;2024-02-21T06:54:52;3.50;;;1.38;;
70312;SDS011;57723;51.698;5.344;2024-02-21T06:57:17;7.83;;;1.43;;
70312;SDS011;57723;51.698;5.344;2024-02-21T06:59:43;3.70;;;1.40;;
70312;SDS011;57723;51.698;5.344;2024-02-21T07:02:08;3.72;;;1.55;;
70312;SDS011;57723;51.698;5.344;2024-02-21T07:04:34;4.47;;;1.50;;
70312;SDS011;57723;51.698;5.344;2024-02-21T07:07:00;2.85;;;1.25;;
70312;SDS011;57723;51.698;5.344;2024-02-21T07:09:25;5.32;;;1.52;;
70312;SDS011;57723;51.698;5.344;2024-02-21T07:11:51;4.73;;;1.33;;
70312;SDS011;57723;51.698;5.344;2024-02-21T07:14:17;3.37;;;1.13;;
70312;SDS011;57723;51.698;5.344;2024-02-21T07:16:43;4.28;;;1.30;;
70312;SDS011;57723;51.698;5.344;2024-02-21T07:19:09;4.65;;;1.50;;
70312;SDS011;57723;51.698;5.344;2024-02-21T07:21:34;4.03;;;1.50;;
70312;SDS011;57723;51.698;5.344;2024-02-21T07:24:02;4.53;;;1.33;;
70312;SDS011;57723;51.698;5.344;2024-02-21T07:26:31;4.15;;;1.40;;
70312;SDS011;57723;51.698;5.344;2024-02-21T07:28:57;3.08;;;1.40;;
70312;SDS011;57723;51.698;5.344;2024-02-21T07:31:28;4.20;;;1.43;;
70312;SDS011;57723;51.698;5.344;2024-02-21T07:33:57;4.63;;;1.60;;
70312;SDS011;57723;51.698;5.344;2024-02-21T07:36:28;4.90;;;1.55;;
70312;SDS011;57723;51.698;5.344;2024-02-21T07:38:55;2.92;;;1.55;;
70312;SDS011;57723;51.698;5.344;2024-02-21T07:41:27;4.20;;;1.35;;
70312;SDS011;57723;51.698;5.344;2024-02-21T07:43:55;5.63;;;1.63;;
70312;SDS011;57723;51.698;5.344;2024-02-21T07:46:21;5.10;;;1.67;;
70312;SDS011;57723;51.698;5.344;2024-02-21T07:48:47;4.75;;;1.67;;
70312;SDS011;57723;51.698;5.344;2024-02-21T07:51:13;3.77;;;1.60;;
70312;SDS011;57723;51.698;5.344;2024-02-21T07:53:38;5.15;;;1.50;;
70312;SDS011;57723;51.698;5.344;2024-02-21T07:56:04;4.20;;;1.47;;
70312;SDS011;57723;51.698;5.344;2024-02-21T07:58:34;4.82;;;1.48;;
70312;SDS011;57723;51.698;5.344;2024-02-21T08:01:02;2.20;;;1.17;;
70312;SDS011;57723;51.698;5.344;2024-02-21T08:03:28;5.03;;;1.50;;
70312;SDS011;57723;51.698;5.344;2024-02-21T08:05:53;2.33;;;1.10;;
70312;SDS011;57723;51.698;5.344;2024-02-21T08:08:18;4.40;;;1.30;;
70312;SDS011;57723;51.698;5.344;2024-02-21T08:10:46;4.23;;;1.43;;
70312;SDS011;57723;51.698;5.344;2024-02-21T08:13:12;3.58;;;1.58;;
70312;SDS011;57723;51.698;5.344;2024-02-21T08:15:38;3.22;;;1.48;;
70312;SDS011;57723;51.698;5.344;2024-02-21T08:18:04;5.40;;;1.60;;
70312;SDS011;57723;51.698;5.344;2024-02-21T08:20:32;3.78;;;1.40;;
70312;SDS011;57723;51.698;5.344;2024-02-21T08:22:58;2.90;;;1.40;;
70312;SDS011;57723;51.698;5.344;2024-02-21T08:25:23;4.33;;;1.57;;
70312;SDS011;57723;51.698;5.344;2024-02-21T08:27:50;3.50;;;1.50;;
70312;SDS011;57723;51.698;5.344;2024-02-21T08:30:16;2.58;;;1.30;;
70312;SDS011;57723;51.698;5.344;2024-02-21T08:32:43;3.53;;;1.33;;
70312;SDS011;57723;51.698;5.344;2024-02-21T08:35:15;4.03;;;1.20;;
70312;SDS011;57723;51.698;5.344;2024-02-21T08:37:43;3.58;;;1.50;;
70312;SDS011;57723;51.698;5.344;2024-02-21T08:40:09;4.80;;;1.40;;
70312;SDS011;57723;51.698;5.344;2024-02-21T08:42:35;3.88;;;1.30;;
70312;SDS011;57723;51.698;5.344;2024-02-21T08:45:02;4.10;;;1.40;;
70312;SDS011;57723;51.698;5.344;2024-02-21T08:47:27;3.53;;;1.30;;
70312;SDS011;57723;51.698;5.344;2024-02-21T08:50:00;5.07;;;1.37;;
70312;SDS011;57723;51.698;5.344;2024-02-21T08:52:26;3.63;;;1.20;;
70312;SDS011;57723;51.698;5.344;2024-02-21T08:54:52;2.80;;;1.40;;
70312;SDS011;57723;51.698;5.344;2024-02-21T08:57:20;3.33;;;1.50;;
70312;SDS011;57723;51.698;5.344;2024-02-21T08:59:46;5.78;;;1.40;;
70312;SDS011;57723;51.698;5.344;2024-02-21T09:02:16;3.85;;;1.50;;
70312;SDS011;57723;51.698;5.344;2024-02-21T09:04:42;3.17;;;1.40;;
70312;SDS011;57723;51.698;5.344;2024-02-21T09:07:09;3.20;;;1.30;;
70312;SDS011;57723;51.698;5.344;2024-02-21T09:09:34;3.00;;;1.33;;
70312;SDS011;57723;51.698;5.344;2024-02-21T09:12:00;3.03;;;1.27;;
70312;SDS011;57723;51.698;5.344;2024-02-21T09:14:31;3.63;;;1.23;;
70312;SDS011;57723;51.698;5.344;2024-02-21T09:16:59;3.80;;;1.25;;
70312;SDS011;57723;51.698;5.344;2024-02-21T09:19:25;4.22;;;1.55;;
70312;SDS011;57723;51.698;5.344;2024-02-21T09:21:50;2.87;;;1.13;;
70312;SDS011;57723;51.698;5.344;2024-02-21T09:24:16;2.53;;;1.30;;
70312;SDS011;57723;51.698;5.344;2024-02-21T09:26:41;7.57;;;1.88;;
70312;SDS011;57723;51.698;5.344;2024-02-21T09:29:06;5.38;;;1.40;;
70312;SDS011;57723;51.698;5.344;2024-02-21T09:31:33;2.88;;;1.23;;
70312;SDS011;57723;51.698;5.344;2024-02-21T09:33:58;3.57;;;1.37;;
70312;SDS011;57723;51.698;5.344;2024-02-21T09:36:23;3.83;;;1.27;;
70312;SDS011;57723;51.698;5.344;2024-02-21T09:38:49;4.97;;;1.30;;
70312;SDS011;57723;51.698;5.344;2024-02-21T09:43:41;3.10;;;1.40;;
70312;SDS011;57723;51.698;5.344;2024-02-21T09:46:07;3.70;;;1.30;;
70312;SDS011;57723;51.698;5.344;2024-02-21T09:48:48;2.75;;;1.40;;
70312;SDS011;57723;51.698;5.344;2024-02-21T09:51:17;3.03;;;1.30;;
70312;SDS011;57723;51.698;5.344;2024-02-21T09:53:47;3.95;;;1.65;;
70312;SDS011;57723;51.698;5.344;2024-02-21T09:56:14;3.38;;;1.20;;
70312;SDS011;57723;51.698;5.344;2024-02-21T09:58:39;3.28;;;1.45;;
70312;SDS011;57723;51.698;5.344;2024-02-21T10:01:06;2.65;;;1.38;;
70312;SDS011;57723;51.698;5.344;2024-02-21T10:03:32;3.07;;;1.20;;
70312;SDS011;57723;51.698;5.344;2024-02-21T10:06:00;3.10;;;1.50;;
70312;SDS011;57723;51.698;5.344;2024-02-21T10:08:26;3.00;;;1.27;;
70312;SDS011;57723;51.698;5.344;2024-02-21T10:10:52;2.97;;;1.50;;
70312;SDS011;57723;51.698;5.344;2024-02-21T10:13:27;3.03;;;1.48;;
70312;SDS011;57723;51.698;5.344;2024-02-21T10:16:03;4.30;;;1.30;;
70312;SDS011;57723;51.698;5.344;2024-02-21T10:18:28;3.67;;;1.40;;
70312;SDS011;57723;51.698;5.344;2024-02-21T10:21:03;2.67;;;1.20;;
70312;SDS011;57723;51.698;5.344;2024-02-21T10:23:29;3.70;;;1.50;;
70312;SDS011;57723;51.698;5.344;2024-02-21T10:25:54;3.20;;;1.30;;
70312;SDS011;57723;51.698;5.344;2024-02-21T10:28:32;4.50;;;1.38;;
70312;SDS011;57723;51.698;5.344;2024-02-21T10:30:57;2.92;;;1.30;;
70312;SDS011;57723;51.698;5.344;2024-02-21T10:33:23;2.83;;;1.27;;
70312;SDS011;57723;51.698;5.344;2024-02-21T10:35:50;4.00;;;1.80;;
70312;SDS011;57723;51.698;5.344;2024-02-21T10:38:16;2.55;;;1.15;;
70312;SDS011;57723;51.698;5.344;2024-02-21T10:40:46;2.47;;;1.10;;
70312;SDS011;57723;51.698;5.344;2024-02-21T10:43:14;3.13;;;1.35;;
70312;SDS011;57723;51.698;5.344;2024-02-21T10:45:44;2.08;;;1.10;;
70312;SDS011;57723;51.698;5.344;2024-02-21T10:48:11;4.10;;;1.40;;
70312;SDS011;57723;51.698;5.344;2024-02-21T10:53:20;3.67;;;1.50;;
70312;SDS011;57723;51.698;5.344;2024-02-21T10:55:51;2.28;;;1.30;;
70312;SDS011;57723;51.698;5.344;2024-02-21T10:58:21;3.50;;;1.20;;
70312;SDS011;57723;51.698;5.344;2024-02-21T11:00:47;2.53;;;1.30;;
70312;SDS011;57723;51.698;5.344;2024-02-21T11:03:17;4.10;;;1.27;;
70312;SDS011;57723;51.698;5.344;2024-02-21T11:05:45;4.28;;;1.40;;
70312;SDS011;57723;51.698;5.344;2024-02-21T11:08:17;2.67;;;1.10;;
70312;SDS011;57723;51.698;5.344;2024-02-21T11:10:45;2.38;;;1.27;;
70312;SDS011;57723;51.698;5.344;2024-02-21T11:13:14;2.65;;;1.30;;
70312;SDS011;57723;51.698;5.344;2024-02-21T11:15:43;2.83;;;1.45;;
70312;SDS011;57723;51.698;5.344;2024-02-21T11:18:08;2.58;;;1.30;;
70312;SDS011;57723;51.698;5.344;2024-02-21T11:20:35;2.73;;;1.40;;
70312;SDS011;57723;51.698;5.344;2024-02-21T11:23:00;2.88;;;1.45;;
70312;SDS011;57723;51.698;5.344;2024-02-21T11:25:26;2.60;;;1.20;;
70312;SDS011;57723;51.698;5.344;2024-02-21T11:27:58;4.67;;;1.30;;
70312;SDS011;57723;51.698;5.344;2024-02-21T11:30:27;2.92;;;1.30;;
70312;SDS011;57723;51.698;5.344;2024-02-21T11:33:02;3.05;;;1.40;;
70312;SDS011;57723;51.698;5.344;2024-02-21T11:35:43;5.65;;;4.80;;
70312;SDS011;57723;51.698;5.344;2024-02-21T11:38:09;3.78;;;1.50;;
70312;SDS011;57723;51.698;5.344;2024-02-21T11:40:39;3.60;;;1.10;;
70312;SDS011;57723;51.698;5.344;2024-02-21T11:43:08;1.77;;;1.17;;
70312;SDS011;57723;51.698;5.344;2024-02-21T11:45:33;2.57;;;1.30;;
70312;SDS011;57723;51.698;5.344;2024-02-21T11:47:59;2.23;;;1.10;;
70312;SDS011;57723;51.698;5.344;2024-02-21T11:50:34;2.42;;;1.20;;
70312;SDS011;57723;51.698;5.344;2024-02-21T11:53:04;2.67;;;1.25;;
70312;SDS011;57723;51.698;5.344;2024-02-21T11:55:29;1.92;;;1.13;;
70312;SDS011;57723;51.698;5.344;2024-02-21T11:57:58;5.88;;;5.10;;
70312;SDS011;57723;51.698;5.344;2024-02-21T12:00:23;5.60;;;1.40;;
70312;SDS011;57723;51.698;5.344;2024-02-21T12:02:54;1.87;;;1.00;;
70312;SDS011;57723;51.698;5.344;2024-02-21T12:05:20;2.17;;;1.00;;
70312;SDS011;57723;51.698;5.344;2024-02-21T12:07:46;2.83;;;1.20;;
70312;SDS011;57723;51.698;5.344;2024-02-21T12:10:12;2.27;;;1.20;;
70312;SDS011;57723;51.698;5.344;2024-02-21T12:12:38;4.00;;;1.20;;
70312;SDS011;57723;51.698;5.344;2024-02-21T12:15:04;2.72;;;1.30;;
70312;SDS011;57723;51.698;5.344;2024-02-21T12:17:36;3.05;;;1.27;;
70312;SDS011;57723;51.698;5.344;2024-02-21T12:20:02;4.25;;;1.30;;
70312;SDS011;57723;51.698;5.344;2024-02-21T12:22:37;2.22;;;1.05;;
70312;SDS011;57723;51.698;5.344;2024-02-21T12:25:18;3.50;;;1.30;;
70312;SDS011;57723;51.698;5.344;2024-02-21T12:27:44;2.20;;;1.00;;
70312;SDS011;57723;51.698;5.344;2024-02-21T12:30:16;3.00;;;1.20;;
70312;SDS011;57723;51.698;5.344;2024-02-21T12:32:41;3.53;;;1.30;;
70312;SDS011;57723;51.698;5.344;2024-02-21T12:35:10;3.10;;;1.25;;
70312;SDS011;57723;51.698;5.344;2024-02-21T12:37:35;3.33;;;1.10;;
70312;SDS011;57723;51.698;5.344;2024-02-21T12:40:05;1.88;;;1.10;;
70312;SDS011;57723;51.698;5.344;2024-02-21T12:42:31;3.47;;;1.27;;
70312;SDS011;57723;51.698;5.344;2024-02-21T12:44:58;2.63;;;1.10;;
70312;SDS011;57723;51.698;5.344;2024-02-21T12:47:23;3.43;;;1.30;;
70312;SDS011;57723;51.698;5.344;2024-02-21T12:49:50;2.28;;;1.20;;
70312;SDS011;57723;51.698;5.344;2024-02-21T12:52:16;4.03;;;1.33;;
70312;SDS011;57723;51.698;5.344;2024-02-21T12:54:44;2.55;;;1.00;;
70312;SDS011;57723;51.698;5.344;2024-02-21T12:57:12;1.67;;;1.00;;
70312;SDS011;57723;51.698;5.344;2024-02-21T12:59:37;1.73;;;1.13;;
70312;SDS011;57723;51.698;5.344;2024-02-21T13:02:03;5.33;;;4.83;;
70312;SDS011;57723;51.698;5.344;2024-02-21T13:04:28;3.30;;;1.27;;
70312;SDS011;57723;51.698;5.344;2024-02-21T13:06:53;2.90;;;1.20;;
70312;SDS011;57723;51.698;5.344;2024-02-21T13:09:20;3.33;;;1.20;;
70312;SDS011;57723;51.698;5.344;2024-02-21T13:11:45;1.92;;;1.00;;
70312;SDS011;57723;51.698;5.344;2024-02-21T13:14:12;3.03;;;1.10;;
70312;SDS011;57723;51.698;5.344;2024-02-21T13:16:38;1.88;;;1.10;;
70312;SDS011;57723;51.698;5.344;2024-02-21T13:19:15;4.45;;;1.33;;
70312;SDS011;57723;51.698;5.344;2024-02-21T13:21:42;2.57;;;1.10;;
70312;SDS011;57723;51.698;5.344;2024-02-21T13:24:13;2.13;;;1.00;;
70312;SDS011;57723;51.698;5.344;2024-02-21T13:26:38;5.10;;;1.23;;
70312;SDS011;57723;51.698;5.344;2024-02-21T13:29:06;2.60;;;1.30;;
70312;SDS011;57723;51.698;5.344;2024-02-21T13:31:32;3.95;;;1.00;;
70312;SDS011;57723;51.698;5.344;2024-02-21T13:33:57;3.97;;;1.30;;
70312;SDS011;57723;51.698;5.344;2024-02-21T13:36:23;2.20;;;1.00;;
70312;SDS011;57723;51.698;5.344;2024-02-21T13:38:48;2.22;;;1.00;;
70312;SDS011;57723;51.698;5.344;2024-02-21T13:41:16;1.80;;;1.10;;
70312;SDS011;57723;51.698;5.344;2024-02-21T13:43:42;1.75;;;1.00;;
70312;SDS011;57723;51.698;5.344;2024-02-21T13:46:08;4.00;;;1.23;;
70312;SDS011;57723;51.698;5.344;2024-02-21T13:48:35;2.85;;;1.10;;
70312;SDS011;57723;51.698;5.344;2024-02-21T13:51:07;2.58;;;1.10;;
70312;SDS011;57723;51.698;5.344;2024-02-21T13:53:33;2.50;;;1.10;;
70312;SDS011;57723;51.698;5.344;2024-02-21T13:56:00;2.88;;;1.30;;
70312;SDS011;57723;51.698;5.344;2024-02-21T13:58:32;2.53;;;0.80;;
70312;SDS011;57723;51.698;5.344;2024-02-21T14:00:57;4.18;;;1.25;;
70312;SDS011;57723;51.698;5.344;2024-02-21T14:03:24;1.85;;;1.00;;
70312;SDS011;57723;51.698;5.344;2024-02-21T14:05:50;2.13;;;0.90;;
70312;SDS011;57723;51.698;5.344;2024-02-21T14:08:18;2.35;;;0.90;;
70312;SDS011;57723;51.698;5.344;2024-02-21T14:10:43;2.40;;;1.30;;
70312;SDS011;57723;51.698;5.344;2024-02-21T14:13:09;5.50;;;0.97;;
70312;SDS011;57723;51.698;5.344;2024-02-21T14:15:35;1.83;;;0.90;;
70312;SDS011;57723;51.698;5.344;2024-02-21T14:18:02;3.60;;;1.13;;
70312;SDS011;57723;51.698;5.344;2024-02-21T14:20:36;1.87;;;0.90;;
70312;SDS011;57723;51.698;5.344;2024-02-21T14:23:12;2.25;;;1.08;;
70312;SDS011;57723;51.698;5.344;2024-02-21T14:25:38;4.60;;;1.13;;
70312;SDS011;57723;51.698;5.344;2024-02-21T14:28:04;2.17;;;0.90;;
70312;SDS011;57723;51.698;5.344;2024-02-21T14:30:30;5.13;;;4.43;;
70312;SDS011;57723;51.698;5.344;2024-02-21T14:32:58;2.03;;;1.20;;
70312;SDS011;57723;51.698;5.344;2024-02-21T14:35:23;2.15;;;1.10;;
70312;SDS011;57723;51.698;5.344;2024-02-21T14:37:49;2.10;;;1.00;;
70312;SDS011;57723;51.698;5.344;2024-02-21T14:40:14;3.47;;;1.10;;
70312;SDS011;57723;51.698;5.344;2024-02-21T14:42:40;2.42;;;1.08;;
70312;SDS011;57723;51.698;5.344;2024-02-21T14:45:05;2.92;;;1.00;;
70312;SDS011;57723;51.698;5.344;2024-02-21T14:47:31;1.37;;;0.90;;
70312;SDS011;57723;51.698;5.344;2024-02-21T14:49:57;2.25;;;1.05;;
70312;SDS011;57723;51.698;5.344;2024-02-21T14:52:22;1.97;;;1.13;;
70312;SDS011;57723;51.698;5.344;2024-02-21T14:54:52;2.70;;;1.00;;